Time;durP1;ratioP1;P1;durP2;ratioP2;P2;SDS_P1;SDS_P2;PMS_P1;PMS_P2;Temp;Humidity;BMP_temperature;BMP_pressure;BME280_temperature;BME280_humidity;BME280_pressure;Samples;Min_cycle;Max_cycle;Signal;HPM_P1;HPM_P2
2023/08/31 00:00:25;;;;;;;;;;;;;;;15.48;72.09;99804.00;4915254;29;2113;-77
2023/08/31 00:03:17;;;;;;;;;;;;;;;15.48;72.07;99795.88;4917920;29;2135;-77
2023/08/31 00:06:09;;;;;;;;;;;;;;;15.45;72.04;99805.34;4917755;29;2451;-78
2023/08/31 00:09:01;;;;;;;;;;;;;;;15.47;71.93;99798.84;4918051;29;2097;-78
2023/08/31 00:11:53;;;;;;;;;;;;;;;15.47;71.96;99799.66;4917529;29;2070;-77
2023/08/31 00:14:45;;;;;;;;;;;;;;;15.45;71.91;99802.63;4917245;29;2113;-78
2023/08/31 00:17:37;;;;;;;;;;;;;;;15.45;71.98;99793.69;4919027;29;2058;-76
2023/08/31 00:20:30;;;;;;;;;;;;;;;15.43;71.92;99795.84;4936246;23;3448;-79
2023/08/31 00:23:21;;;;;;;;;;;;;;;15.43;71.83;99802.09;4938547;29;2564;-79
2023/08/31 00:26:13;;;;;;;;;;;;;;;15.41;71.88;99803.44;4932184;29;2038;-77
2023/08/31 00:29:05;;;;;;;;;;;;;;;15.39;71.92;99798.28;4933162;29;2078;-76
2023/08/31 00:31:57;;;;;;;;;;;;;;;15.39;71.84;99794.78;4935246;29;2111;-77
2023/08/31 00:34:49;;;;;;;;;;;;;;;15.38;71.72;99788.53;4932326;29;2118;-77
2023/08/31 00:37:41;;;;;;;;;;;;;;;15.39;71.88;99792.06;4935707;29;2129;-77
2023/08/31 00:40:37;;;;;;;;;;;;;;;15.36;71.81;99793.41;4930628;29;2109;-77
2023/08/31 00:43:29;;;;;;;;;;;;;;;15.39;71.65;99783.91;4938089;29;2129;-78
2023/08/31 00:46:21;;;;;;;;;;;;;;;15.37;71.84;99792.31;4935834;29;2062;-79
2023/08/31 00:49:14;;;;;;;;;;;;;;;15.36;71.75;99789.88;4932007;29;2007;-78
2023/08/31 00:52:05;;;;;;;;;;;;;;;15.35;71.81;99793.66;4932913;29;2089;-79
2023/08/31 00:54:57;;;;;;;;;;;;;;;15.34;71.80;99790.13;4930432;29;2060;-77
2023/08/31 00:57:49;;;;;;;;;;;;;;;15.34;71.66;99795.56;4932494;29;2050;-78
2023/08/31 01:00:41;;;;;;;;;;;;;;;15.33;71.76;99790.44;4931944;29;2102;-79
2023/08/31 01:03:33;;;;;;;;;;;;;;;15.33;71.63;99804.81;4931995;29;2339;-79
2023/08/31 01:06:25;;;;;;;;;;;;;;;15.34;71.65;99794.75;4937293;29;2398;-78
2023/08/31 01:09:16;;;;;;;;;;;;;;;15.31;71.67;99789.88;4934735;29;2370;-77
2023/08/31 01:12:08;;;;;;;;;;;;;;;15.30;71.50;99791.78;4935123;29;1956;-77
2023/08/31 01:14:59;;;;;;;;;;;;;;;15.30;71.70;99790.97;4932249;29;2044;-78
2023/08/31 01:17:51;;;;;;;;;;;;;;;15.29;71.67;99797.47;4934226;29;1992;-77
2023/08/31 01:20:43;;;;;;;;;;;;;;;15.29;71.43;99800.16;4947325;28;2026;-79
2023/08/31 01:23:35;;;;;;;;;;;;;;;15.28;71.62;99804.78;4952822;28;1493;-79
2023/08/31 01:26:27;;;;;;;;;;;;;;;15.27;71.47;99799.66;4958355;28;1927;-79
2023/08/31 01:29:19;;;;;;;;;;;;;;;15.26;71.46;99796.09;4951138;28;2093;-79
2023/08/31 01:32:11;;;;;;;;;;;;;;;15.26;71.53;99792.56;4943644;28;2113;-80
2023/08/31 01:35:05;;;;;;;;;;;;;;;15.25;71.41;99794.47;4942955;28;2696;-78
2023/08/31 01:37:57;;;;;;;;;;;;;;;15.25;71.42;99796.38;4950357;28;2115;-77
2023/08/31 01:40:49;;;;;;;;;;;;;;;15.25;71.48;99796.38;4951974;28;2156;-77
2023/08/31 01:43:40;;;;;;;;;;;;;;;15.22;71.55;99803.16;4952187;28;2481;-77
2023/08/31 01:46:32;;;;;;;;;;;;;;;15.21;71.44;99807.75;4950618;28;2076;-78
2023/08/31 01:49:24;;;;;;;;;;;;;;;15.21;71.38;99805.06;4952679;28;2162;-78
2023/08/31 01:52:16;;;;;;;;;;;;;;;15.21;71.36;99810.47;4952844;28;2353;-77
2023/08/31 01:55:08;;;;;;;;;;;;;;;15.22;71.35;99816.72;4952084;28;2078;-78
2023/08/31 01:58:00;;;;;;;;;;;;;;;15.19;71.34;99807.22;4950926;28;2048;-77
2023/08/31 02:00:52;;;;;;;;;;;;;;;15.19;71.36;99807.22;4951205;28;2079;-79
2023/08/31 02:03:44;;;;;;;;;;;;;;;15.17;71.27;99809.38;4951288;28;2115;-77
2023/08/31 02:06:36;;;;;;;;;;;;;;;15.17;71.41;99816.69;4947238;28;2185;-77
2023/08/31 02:09:28;;;;;;;;;;;;;;;15.15;71.39;99808.84;4949620;28;2082;-77
2023/08/31 02:12:20;;;;;;;;;;;;;;;15.16;71.38;99815.06;4946998;28;2287;-79
2023/08/31 02:15:12;;;;;;;;;;;;;;;15.13;71.22;99805.56;4949744;28;2077;-79
2023/08/31 02:18:04;;;;;;;;;;;;;;;15.13;71.22;99810.19;4948981;28;2084;-78
2023/08/31 02:20:57;;;;;;;;;;;;;;;15.12;71.32;99805.84;4952600;28;2092;-77
2023/08/31 02:23:49;;;;;;;;;;;;;;;15.10;71.30;99814.25;4950418;28;2099;-79
2023/08/31 02:26:41;;;;;;;;;;;;;;;15.11;71.32;99804.19;4953709;28;2021;-78
2023/08/31 02:29:33;;;;;;;;;;;;;;;15.13;71.29;99818.31;4952253;28;2048;-79
2023/08/31 02:32:24;;;;;;;;;;;;;;;15.08;71.19;99824.53;4949076;28;2161;-78
2023/08/31 02:35:16;;;;;;;;;;;;;;;15.08;71.21;99821.81;4952223;28;2123;-77
2023/08/31 02:38:08;;;;;;;;;;;;;;;15.06;71.23;99825.88;4952117;28;2142;-78
2023/08/31 02:41:00;;;;;;;;;;;;;;;15.08;71.33;99826.44;4976752;23;3661;-79
2023/08/31 02:43:52;;;;;;;;;;;;;;;15.07;71.10;99813.97;4931258;29;2417;-78
2023/08/31 02:46:44;;;;;;;;;;;;;;;15.04;71.37;99814.50;4935253;29;2016;-78
2023/08/31 02:49:36;;;;;;;;;;;;;;;15.02;71.39;99819.38;4933755;29;2163;-78
2023/08/31 02:52:28;;;;;;;;;;;;;;;15.02;71.31;99813.94;4932145;29;2073;-78
2023/08/31 02:55:21;;;;;;;;;;;;;;;15.02;71.35;99824.78;4932763;29;2092;-78
2023/08/31 02:58:13;;;;;;;;;;;;;;;14.99;71.26;99818.00;4931260;29;2185;-78
2023/08/31 03:01:05;;;;;;;;;;;;;;;15.00;71.37;99819.66;4931536;29;2119;-78
2023/08/31 03:03:57;;;;;;;;;;;;;;;14.98;71.37;99814.47;4931502;29;2176;-78
2023/08/31 03:06:49;;;;;;;;;;;;;;;14.98;71.36;99813.66;4928737;29;2151;-78
2023/08/31 03:09:41;;;;;;;;;;;;;;;14.96;71.24;99815.81;4934293;29;1954;-79
2023/08/31 03:12:33;;;;;;;;;;;;;;;14.94;71.25;99817.97;4934768;29;1934;-79
2023/08/31 03:15:25;;;;;;;;;;;;;;;14.95;71.26;99822.34;4940011;29;2016;-79
2023/08/31 03:18:17;;;;;;;;;;;;;;;14.93;71.30;99824.50;4939922;29;1992;-79
2023/08/31 03:21:09;;;;;;;;;;;;;;;14.95;71.28;99819.63;4935533;29;1967;-78
2023/08/31 03:24:01;;;;;;;;;;;;;;;14.93;71.25;99814.47;4932821;29;2405;-78
2023/08/31 03:26:53;;;;;;;;;;;;;;;14.93;71.18;99811.75;4931774;29;2037;-79
2023/08/31 03:29:45;;;;;;;;;;;;;;;14.95;71.14;99812.31;4934831;29;1975;-79
2023/08/31 03:32:37;;;;;;;;;;;;;;;14.91;71.08;99813.94;4937476;29;2097;-78
2023/08/31 03:35:29;;;;;;;;;;;;;;;14.91;71.07;99815.81;4929293;29;2992;-78
2023/08/31 03:38:21;;;;;;;;;;;;;;;14.89;71.18;99812.56;4927769;29;911;-77
2023/08/31 03:41:13;;;;;;;;;;;;;;;14.90;71.05;99804.16;4937196;28;2136;-77
2023/08/31 03:44:05;;;;;;;;;;;;;;;14.91;70.95;99813.09;4950941;28;1907;-78
2023/08/31 03:46:57;;;;;;;;;;;;;;;14.88;71.10;99811.75;4945996;28;2067;-79
2023/08/31 03:49:49;;;;;;;;;;;;;;;14.88;71.11;99814.47;4952466;28;2040;-78
2023/08/31 03:52:41;;;;;;;;;;;;;;;14.86;71.04;99813.09;4951566;28;2131;-78
2023/08/31 03:55:33;;;;;;;;;;;;;;;14.85;71.04;99820.38;4954524;28;2096;-79
2023/08/31 03:58:25;;;;;;;;;;;;;;;14.82;71.21;99815.50;4948392;28;2194;-78
2023/08/31 04:01:17;;;;;;;;;;;;;;;14.85;71.07;99827.72;4948994;28;2089;-79
2023/08/31 04:04:09;;;;;;;;;;;;;;;14.83;71.02;99825.28;4950853;28;2171;-78
2023/08/31 04:07:01;;;;;;;;;;;;;;;14.83;71.07;99824.47;4950413;28;2515;-79
2023/08/31 04:09:52;;;;;;;;;;;;;;;14.82;71.02;99826.34;4951409;28;2056;-79
2023/08/31 04:12:44;;;;;;;;;;;;;;;14.82;70.92;99823.63;4950855;28;2231;-79
2023/08/31 04:15:36;;;;;;;;;;;;;;;14.80;71.08;99819.56;4945522;28;2071;-79
2023/08/31 04:18:28;;;;;;;;;;;;;;;14.80;70.93;99814.16;4950603;28;2692;-78
2023/08/31 04:21:20;;;;;;;;;;;;;;;14.77;70.94;99813.59;4948407;28;2149;-78
2023/08/31 04:24:12;;;;;;;;;;;;;;;14.77;70.98;99815.50;4945847;28;2068;-78
2023/08/31 04:27:04;;;;;;;;;;;;;;;14.77;70.88;99812.78;4949221;28;2124;-79
2023/08/31 04:29:56;;;;;;;;;;;;;;;14.75;70.85;99815.75;4948955;28;2215;-79
2023/08/31 04:32:48;;;;;;;;;;;;;;;14.76;70.80;99805.72;4955901;28;1950;-78
2023/08/31 04:35:40;;;;;;;;;;;;;;;14.73;70.88;99808.97;4953185;28;1933;-78
2023/08/31 04:38:32;;;;;;;;;;;;;;;14.73;71.06;99806.25;4941320;29;1108;-79
2023/08/31 04:41:24;;;;;;;;;;;;;;;14.71;70.94;99794.88;4948365;28;2126;-78
2023/08/31 04:44:17;;;;;;;;;;;;;;;14.71;70.86;99801.09;4947068;28;2089;-79
2023/08/31 04:47:08;;;;;;;;;;;;;;;14.71;70.86;99803.00;4947915;28;2440;-78
2023/08/31 04:50:00;;;;;;;;;;;;;;;14.69;70.96;99810.59;4947851;28;2726;-78
2023/08/31 04:52:52;;;;;;;;;;;;;;;14.68;70.84;99803.53;4953162;28;2294;-79
2023/08/31 04:55:44;;;;;;;;;;;;;;;14.64;70.92;99814.06;4950810;28;2107;-77
2023/08/31 04:58:36;;;;;;;;;;;;;;;14.66;70.85;99816.53;4942727;28;2143;-78
2023/08/31 05:01:28;;;;;;;;;;;;;;;14.63;70.97;99814.34;4950040;28;2095;-77
2023/08/31 05:04:20;;;;;;;;;;;;;;;14.62;71.19;99816.25;4945498;28;3253;-79
2023/08/31 05:07:12;;;;;;;;;;;;;;;14.64;70.97;99811.38;4949457;28;2074;-77
2023/08/31 05:10:04;;;;;;;;;;;;;;;14.61;71.01;99809.19;4944115;28;5026;-77
2023/08/31 05:12:56;;;;;;;;;;;;;;;14.60;70.86;99812.16;4946961;28;3419;-79
2023/08/31 05:15:48;;;;;;;;;;;;;;;14.61;71.00;99813.78;4951316;28;3399;-77
2023/08/31 05:18:41;;;;;;;;;;;;;;;14.58;71.00;99804.28;4950097;28;2025;-76
2023/08/31 05:21:32;;;;;;;;;;;;;;;14.59;70.81;99810.53;4952064;28;1934;-78
2023/08/31 05:24:23;;;;;;;;;;;;;;;14.57;70.82;99816.22;4949739;28;1911;-78
2023/08/31 05:27:15;;;;;;;;;;;;;;;14.57;70.80;99818.13;4954784;28;1965;-79
2023/08/31 05:30:07;;;;;;;;;;;;;;;14.58;70.76;99817.84;4947703;28;2041;-78
2023/08/31 05:32:59;;;;;;;;;;;;;;;14.54;70.97;99816.75;4948950;28;1967;-78
2023/08/31 05:35:51;;;;;;;;;;;;;;;14.52;70.97;99818.91;4959116;28;2013;-77
2023/08/31 05:38:43;;;;;;;;;;;;;;;14.49;70.92;99812.06;4952915;28;2104;-77
2023/08/31 05:41:35;;;;;;;;;;;;;;;14.50;70.90;99816.44;4944778;28;2019;-80
2023/08/31 05:44:27;;;;;;;;;;;;;;;14.49;70.96;99812.06;4951501;28;2141;-78
2023/08/31 05:47:18;;;;;;;;;;;;;;;14.51;70.74;99814.53;4952887;28;2183;-78
2023/08/31 05:50:10;;;;;;;;;;;;;;;14.49;70.88;99811.25;4951694;28;2179;-77
2023/08/31 05:53:02;;;;;;;;;;;;;;;14.47;70.98;99814.25;4949888;28;2466;-78
2023/08/31 05:55:54;;;;;;;;;;;;;;;14.47;70.79;99822.38;4949801;28;2091;-78
2023/08/31 05:58:45;;;;;;;;;;;;;;;14.45;70.83;99824.53;4946688;28;2102;-78
2023/08/31 06:01:37;;;;;;;;;;;;;;;14.43;70.99;99829.38;4942100;28;2096;-78
2023/08/31 06:04:29;;;;;;;;;;;;;;;14.42;71.05;99824.25;4946175;28;2142;-77
2023/08/31 06:07:21;;;;;;;;;;;;;;;14.42;70.86;99827.75;4948891;28;3068;-76
2023/08/31 06:10:14;;;;;;;;;;;;;;;14.43;70.80;99821.25;4949026;28;2088;-76
2023/08/31 06:13:06;;;;;;;;;;;;;;;14.42;70.88;99830.47;4948328;28;2082;-78
2023/08/31 06:15:57;;;;;;;;;;;;;;;14.41;70.89;99830.72;4950124;28;2195;-77
2023/08/31 06:18:49;;;;;;;;;;;;;;;14.39;70.89;99828.28;4952539;28;2087;-77
2023/08/31 06:21:40;;;;;;;;;;;;;;;14.38;70.99;99833.97;4950248;28;2057;-76
2023/08/31 06:24:33;;;;;;;;;;;;;;;14.39;70.93;99846.44;4949477;28;2155;-76
2023/08/31 06:27:25;;;;;;;;;;;;;;;14.37;70.75;99849.41;4945082;28;2483;-78
2023/08/31 06:30:17;;;;;;;;;;;;;;;14.36;70.85;99850.50;4947701;28;2484;-78
2023/08/31 06:33:09;;;;;;;;;;;;;;;14.35;70.79;99850.72;4946444;28;2142;-77
2023/08/31 06:36:01;;;;;;;;;;;;;;;14.37;70.76;99846.69;4947604;28;2080;-79
2023/08/31 06:38:53;;;;;;;;;;;;;;;14.36;70.89;99841.56;4945777;28;2377;-77
2023/08/31 06:41:45;;;;;;;;;;;;;;;14.35;70.74;99846.13;4954172;28;2041;-77
2023/08/31 06:44:37;;;;;;;;;;;;;;;14.34;70.71;99847.22;4948878;28;2222;-79
2023/08/31 06:47:29;;;;;;;;;;;;;;;14.34;70.68;99841.00;4950998;28;2092;-77
2023/08/31 06:50:21;;;;;;;;;;;;;;;14.31;70.74;99845.84;4952938;28;2206;-77
2023/08/31 06:53:13;;;;;;;;;;;;;;;14.30;70.77;99835.28;4951128;28;2163;-77
2023/08/31 06:56:05;;;;;;;;;;;;;;;14.31;70.81;99845.03;4953423;28;2101;-77
2023/08/31 06:58:57;;;;;;;;;;;;;;;14.31;70.91;99843.13;4938150;28;5228;-77
2023/08/31 07:01:49;;;;;;;;;;;;;;;14.30;70.88;99846.13;4943551;28;2759;-77
2023/08/31 07:04:41;;;;;;;;;;;;;;;14.31;70.72;99842.31;4950125;28;2219;-79
2023/08/31 07:07:33;;;;;;;;;;;;;;;14.31;70.83;99845.03;4951615;28;2227;-76
2023/08/31 07:10:24;;;;;;;;;;;;;;;14.29;70.81;99841.75;4948648;28;2200;-76
2023/08/31 07:13:16;;;;;;;;;;;;;;;14.30;70.58;99851.53;4950884;28;2169;-77
2023/08/31 07:16:08;;;;;;;;;;;;;;;14.27;70.86;99844.75;4951200;28;2243;-78
2023/08/31 07:19:00;;;;;;;;;;;;;;;14.28;70.76;99851.78;4945313;28;3465;-78
2023/08/31 07:21:54;;;;;;;;;;;;;;;14.29;70.69;99856.13;4949889;28;2444;-78
2023/08/31 07:24:46;;;;;;;;;;;;;;;14.32;70.61;99849.34;4948007;28;2493;-78
2023/08/31 07:27:37;;;;;;;;;;;;;;;14.31;70.60;99855.88;4956597;28;2796;-77
2023/08/31 07:30:29;;;;;;;;;;;;;;;14.29;70.83;99858.00;4950569;28;2162;-77
2023/08/31 07:33:21;;;;;;;;;;;;;;;14.29;70.66;99858.00;4952108;28;2318;-76
2023/08/31 07:36:15;;;;;;;;;;;;;;;14.27;70.64;99863.69;4951596;28;2164;-78
2023/08/31 07:39:07;;;;;;;;;;;;;;;14.28;70.73;99853.69;4950615;28;2174;-75
2023/08/31 07:41:59;;;;;;;;;;;;;;;14.28;70.52;99854.50;4951325;28;2181;-76
2023/08/31 07:44:51;;;;;;;;;;;;;;;14.25;70.66;99849.59;4950774;28;2367;-76
2023/08/31 07:47:42;;;;;;;;;;;;;;;14.26;70.71;99856.63;4949521;28;2107;-80
2023/08/31 07:50:34;;;;;;;;;;;;;;;14.28;70.75;99856.38;4947809;28;2213;-76
2023/08/31 07:53:26;;;;;;;;;;;;;;;14.26;70.79;99850.41;4951474;28;2099;-76
2023/08/31 07:56:18;;;;;;;;;;;;;;;14.26;70.64;99853.94;4952269;28;2024;-77
2023/08/31 07:59:10;;;;;;;;;;;;;;;14.27;70.63;99852.88;4953236;28;2177;-76
2023/08/31 08:02:02;;;;;;;;;;;;;;;14.29;70.67;99848.00;4951878;28;2095;-76
2023/08/31 08:04:54;;;;;;;;;;;;;;;14.27;70.70;99847.44;4952244;28;2078;-77
2023/08/31 08:07:45;;;;;;;;;;;;;;;14.24;70.67;99845.25;4949159;28;2151;-76
2023/08/31 08:10:37;;;;;;;;;;;;;;;14.25;70.85;99846.06;4948584;28;2246;-75
2023/08/31 08:13:29;;;;;;;;;;;;;;;14.24;70.65;99847.16;4947345;28;2080;-77
2023/08/31 08:16:21;;;;;;;;;;;;;;;14.25;70.86;99857.72;4952771;28;2085;-77
2023/08/31 08:19:13;;;;;;;;;;;;;;;14.24;70.83;99858.81;4941956;28;4191;-77
2023/08/31 08:22:05;;;;;;;;;;;;;;;14.23;70.82;99859.06;4940863;28;4973;-78
2023/08/31 08:24:57;;;;;;;;;;;;;;;14.24;70.80;99860.72;4945703;28;5163;-77
2023/08/31 08:27:49;;;;;;;;;;;;;;;14.24;70.79;99863.41;4944843;28;5171;-77
2023/08/31 08:30:41;;;;;;;;;;;;;;;14.24;70.91;99869.63;4953574;28;2058;-77
2023/08/31 08:33:33;;;;;;;;;;;;;;;14.27;70.70;99862.88;4946073;28;4117;-78
2023/08/31 08:36:25;;;;;;;;;;;;;;;14.25;70.87;99862.31;4950385;28;4158;-77
2023/08/31 08:39:17;;;;;;;;;;;;;;;14.25;70.87;99860.44;4950441;28;2135;-77
2023/08/31 08:42:09;;;;;;;;;;;;;;;14.25;70.76;99860.44;4948614;28;2404;-78
2023/08/31 08:45:01;;;;;;;;;;;;;;;14.26;70.77;99858.53;4948751;28;2215;-78
2023/08/31 08:47:53;;;;;;;;;;;;;;;14.26;70.76;99861.25;4943069;28;5520;-77
2023/08/31 08:50:45;;;;;;;;;;;;;;;14.27;70.86;99855.56;4935516;28;5774;-79
2023/08/31 08:53:38;;;;;;;;;;;;;;;14.27;70.82;99857.47;4929592;28;5011;-78
2023/08/31 08:56:30;;;;;;;;;;;;;;;14.27;70.84;99862.88;4958113;28;2408;-77
2023/08/31 08:59:22;;;;;;;;;;;;;;;14.28;70.90;99857.19;4952173;28;3676;-76
2023/08/31 09:02:14;;;;;;;;;;;;;;;14.29;70.84;99856.13;4940344;28;2336;-77
2023/08/31 09:05:06;;;;;;;;;;;;;;;14.29;70.98;99856.13;4944395;28;2303;-77
2023/08/31 09:07:58;;;;;;;;;;;;;;;14.29;70.82;99850.72;4950260;28;2388;-75
2023/08/31 09:10:50;;;;;;;;;;;;;;;14.29;71.00;99844.47;4950561;28;3847;-77
2023/08/31 09:13:42;;;;;;;;;;;;;;;14.30;71.00;99838.81;4951298;28;2729;-76
2023/08/31 09:16:34;;;;;;;;;;;;;;;14.31;70.88;99845.84;4950406;28;1934;-77
2023/08/31 09:19:27;;;;;;;;;;;;;;;14.33;70.95;99837.47;4950640;28;1621;-75
2023/08/31 09:22:19;;;;;;;;;;;;;;;14.34;70.88;99839.09;4945841;28;2026;-77
2023/08/31 09:25:11;;;;;;;;;;;;;;;14.32;70.86;99831.25;4953275;28;2106;-77
2023/08/31 09:28:03;;;;;;;;;;;;;;;14.35;70.98;99840.72;4955887;28;1708;-77
2023/08/31 09:30:54;;;;;;;;;;;;;;;14.35;71.02;99839.91;4950938;28;2401;-77
2023/08/31 09:33:46;;;;;;;;;;;;;;;14.36;70.84;99839.66;4946183;28;2201;-77
2023/08/31 09:36:38;;;;;;;;;;;;;;;14.37;71.05;99835.03;4951041;28;3582;-77
2023/08/31 09:39:30;;;;;;;;;;;;;;;14.38;71.11;99833.97;4955165;28;2227;-78
2023/08/31 09:42:22;;;;;;;;;;;;;;;14.38;70.91;99832.06;4945968;28;2306;-77
2023/08/31 09:45:14;;;;;;;;;;;;;;;14.39;70.88;99827.47;4951363;28;2250;-77
2023/08/31 09:48:06;;;;;;;;;;;;;;;14.41;70.97;99833.44;4946434;28;2192;-78
2023/08/31 09:50:58;;;;;;;;;;;;;;;14.40;70.87;99820.97;4950474;28;2089;-77
2023/08/31 09:53:50;;;;;;;;;;;;;;;14.41;70.92;99823.44;4947174;28;2248;-80
2023/08/31 09:56:42;;;;;;;;;;;;;;;14.42;71.09;99821.53;4949352;28;2168;-79
2023/08/31 09:59:35;;;;;;;;;;;;;;;14.43;70.95;99823.97;4944897;28;2180;-77
2023/08/31 10:02:27;;;;;;;;;;;;;;;14.45;70.93;99823.72;4951116;28;1995;-76
2023/08/31 10:05:19;;;;;;;;;;;;;;;14.46;71.11;99823.44;4948454;28;2041;-78
2023/08/31 10:08:11;;;;;;;;;;;;;;;14.46;71.09;99815.31;4947702;28;2256;-76
2023/08/31 10:11:04;;;;;;;;;;;;;;;14.48;71.03;99821.28;4949844;28;2611;-78
2023/08/31 10:13:56;;;;;;;;;;;;;;;14.49;71.18;99822.09;4946832;28;2334;-77
2023/08/31 10:16:47;;;;;;;;;;;;;;;14.49;71.13;99825.63;4947040;28;2282;-77
2023/08/31 10:19:39;;;;;;;;;;;;;;;14.51;71.18;99819.94;4949330;28;2346;-77
2023/08/31 10:22:31;;;;;;;;;;;;;;;14.51;71.17;99818.09;4946301;28;2184;-76
2023/08/31 10:25:23;;;;;;;;;;;;;;;14.53;71.07;99823.25;4950031;28;2004;-76
2023/08/31 10:28:15;;;;;;;;;;;;;;;14.54;71.15;99814.84;4948362;28;2080;-76
2023/08/31 10:31:08;;;;;;;;;;;;;;;14.56;71.10;99813.75;4951637;28;2137;-76
2023/08/31 10:33:59;;;;;;;;;;;;;;;14.56;71.15;99820.03;4956248;28;1841;-76
2023/08/31 10:36:51;;;;;;;;;;;;;;;14.55;71.14;99812.94;4950398;28;1966;-77
2023/08/31 10:39:42;;;;;;;;;;;;;;;14.58;71.13;99819.75;4944779;28;2058;-75
2023/08/31 10:42:34;;;;;;;;;;;;;;;14.59;71.17;99813.22;4948968;28;2196;-76
2023/08/31 10:45:26;;;;;;;;;;;;;;;14.60;71.32;99815.69;4949251;28;2496;-77
2023/08/31 10:48:18;;;;;;;;;;;;;;;14.61;71.19;99811.88;4947011;28;2692;-76
2023/08/31 10:51:10;;;;;;;;;;;;;;;14.62;71.37;99805.41;4945331;28;2221;-77
2023/08/31 10:54:02;;;;;;;;;;;;;;;14.63;71.36;99795.38;4957874;28;2164;-78
2023/08/31 10:56:55;;;;;;;;;;;;;;;14.65;71.27;99795.94;4948908;28;2136;-75
2023/08/31 10:59:47;;;;;;;;;;;;;;;14.65;71.21;99793.22;4956969;28;2088;-76
2023/08/31 11:02:41;;;;;;;;;;;;;;;14.67;71.20;99799.19;4954379;28;2553;-75
2023/08/31 11:05:32;;;;;;;;;;;;;;;14.68;71.30;99793.50;4957333;28;1527;-77
2023/08/31 11:08:24;;;;;;;;;;;;;;;14.68;71.40;99798.13;4950055;28;2184;-76
2023/08/31 11:11:16;;;;;;;;;;;;;;;14.70;71.45;99796.75;4952520;28;2570;-76
2023/08/31 11:14:08;;;;;;;;;;;;;;;14.72;71.37;99797.31;4953560;29;939;-76
2023/08/31 11:17:00;;;;;;;;;;;;;;;14.74;71.33;99802.47;4949458;29;2077;-75
2023/08/31 11:19:52;;;;;;;;;;;;;;;14.75;71.42;99790.53;4951369;28;2028;-76
2023/08/31 11:22:44;;;;;;;;;;;;;;;14.76;71.42;99792.16;4954479;28;1540;-76
2023/08/31 11:25:36;;;;;;;;;;;;;;;14.77;71.15;99791.09;4953808;28;1651;-75
2023/08/31 11:28:28;;;;;;;;;;;;;;;14.80;71.35;99789.75;4956016;28;2112;-77
2023/08/31 11:31:20;;;;;;;;;;;;;;;14.81;71.44;99784.06;4950379;28;2278;-78
2023/08/31 11:34:12;;;;;;;;;;;;;;;14.82;71.49;99790.28;4950203;28;1603;-76
2023/08/31 11:37:04;;;;;;;;;;;;;;;14.83;71.38;99797.38;4948346;28;1907;-78
2023/08/31 11:39:56;;;;;;;;;;;;;;;14.84;71.57;99788.94;4954214;28;1477;-75
2023/08/31 11:42:48;;;;;;;;;;;;;;;14.86;71.56;99784.09;4941934;29;1282;-76
2023/08/31 11:45:40;;;;;;;;;;;;;;;14.86;71.53;99784.09;4952330;28;2065;-76
2023/08/31 11:48:32;;;;;;;;;;;;;;;14.88;71.63;99786.50;4955563;28;1520;-76
2023/08/31 11:51:24;;;;;;;;;;;;;;;14.89;71.62;99774.59;4949788;29;1567;-77
2023/08/31 11:54:15;;;;;;;;;;;;;;;14.91;71.46;99778.69;4957768;28;2093;-76
2023/08/31 11:57:07;;;;;;;;;;;;;;;14.92;71.70;99776.78;4952983;28;1970;-76
2023/08/31 11:59:59;;;;;;;;;;;;;;;14.93;71.60;99779.22;4949046;28;1519;-77
2023/08/31 12:02:51;;;;;;;;;;;;;;;14.95;71.66;99778.97;4951406;28;2056;-77
2023/08/31 12:05:43;;;;;;;;;;;;;;;14.96;71.68;99775.16;4953214;29;1564;-77
2023/08/31 12:08:35;;;;;;;;;;;;;;;14.98;71.65;99775.72;4953594;29;1512;-76
2023/08/31 12:11:27;;;;;;;;;;;;;;;14.99;71.72;99770.00;4952174;28;1966;-77
2023/08/31 12:14:19;;;;;;;;;;;;;;;14.99;71.79;99770.00;4949144;28;2349;-76
2023/08/31 12:17:11;;;;;;;;;;;;;;;15.01;71.59;99766.22;4949987;28;2081;-77
2023/08/31 12:20:04;;;;;;;;;;;;;;;15.03;71.76;99767.59;4951966;28;2239;-75
2023/08/31 12:22:55;;;;;;;;;;;;;;;15.04;71.80;99766.50;4952017;28;2243;-77
2023/08/31 12:25:46;;;;;;;;;;;;;;;15.06;71.78;99763.50;4954526;28;2242;-78
2023/08/31 12:28:38;;;;;;;;;;;;;;;15.07;71.83;99768.69;4947222;28;2223;-75
2023/08/31 12:31:30;;;;;;;;;;;;;;;15.07;71.74;99771.38;4951362;28;2251;-77
2023/08/31 12:34:22;;;;;;;;;;;;;;;15.10;71.81;99768.13;4952014;28;2222;-77
2023/08/31 12:37:14;;;;;;;;;;;;;;;15.12;71.92;99763.28;4952980;28;2771;-77
2023/08/31 12:40:09;;;;;;;;;;;;;;;15.13;71.93;99762.19;4951335;28;1791;-77
2023/08/31 12:43:01;;;;;;;;;;;;;;;15.15;71.85;99770.06;4955278;28;2085;-77
2023/08/31 12:45:52;;;;;;;;;;;;;;;15.16;71.86;99761.63;4955866;28;1678;-78
2023/08/31 12:48:44;;;;;;;;;;;;;;;15.19;72.03;99757.56;4948794;28;1500;-77
2023/08/31 12:51:36;;;;;;;;;;;;;;;15.20;71.86;99760.00;4953099;28;2009;-78
2023/08/31 12:54:28;;;;;;;;;;;;;;;15.22;72.01;99757.84;4953219;28;1555;-78
2023/08/31 12:57:20;;;;;;;;;;;;;;;15.23;71.96;99755.94;4950915;28;1922;-74
2023/08/31 13:00:13;;;;;;;;;;;;;;;15.25;72.09;99756.50;4948311;28;1978;-77
2023/08/31 13:03:06;;;;;;;;;;;;;;;15.26;72.11;99760.81;4953785;28;2200;-77
2023/08/31 13:05:58;;;;;;;;;;;;;;;15.28;72.06;99749.72;4950188;28;2399;-76
2023/08/31 13:08:50;;;;;;;;;;;;;;;15.30;72.16;99756.50;4950774;28;2206;-77
2023/08/31 13:11:42;;;;;;;;;;;;;;;15.32;72.10;99767.88;4946262;28;2178;-76
2023/08/31 13:14:34;;;;;;;;;;;;;;;15.33;72.01;99755.16;4949535;28;1978;-76
2023/08/31 13:17:26;;;;;;;;;;;;;;;15.35;72.13;99756.53;4945616;28;4327;-77
2023/08/31 13:20:18;;;;;;;;;;;;;;;15.36;72.16;99752.72;4948318;28;2915;-77
2023/08/31 13:23:10;;;;;;;;;;;;;;;15.39;72.14;99757.59;4947409;28;2871;-76
2023/08/31 13:26:02;;;;;;;;;;;;;;;15.41;72.04;99760.03;4948959;28;2323;-76
2023/08/31 13:28:54;;;;;;;;;;;;;;;15.42;72.09;99754.34;4945394;28;2217;-77
2023/08/31 13:31:46;;;;;;;;;;;;;;;15.44;72.12;99757.59;4948144;28;2212;-76
2023/08/31 13:34:38;;;;;;;;;;;;;;;15.47;72.12;99752.69;4958083;28;1962;-77
2023/08/31 13:37:36;;;;;;;;;;;;;;;15.49;72.08;99750.53;5111570;27;2310;-77
2023/08/31 13:40:28;;;;;;;;;;;;;;;15.51;72.04;99756.53;5094554;28;2224;-76
2023/08/31 13:43:20;;;;;;;;;;;;;;;15.52;72.12;99755.44;5100870;28;1356;-77
2023/08/31 13:46:12;;;;;;;;;;;;;;;15.54;72.17;99755.97;5100787;28;1585;-76
2023/08/31 13:49:04;;;;;;;;;;;;;;;15.56;72.22;99757.34;5088090;28;1512;-78
2023/08/31 13:51:55;;;;;;;;;;;;;;;15.58;72.12;99763.28;5100508;28;2124;-78
2023/08/31 13:54:47;;;;;;;;;;;;;;;15.59;72.21;99764.94;5101417;28;1930;-78
2023/08/31 13:57:39;;;;;;;;;;;;;;;15.61;72.22;99762.75;5091776;28;2188;-79
2023/08/31 14:00:31;;;;;;;;;;;;;;;15.62;72.25;99761.69;5093795;28;2182;-76
2023/08/31 14:03:23;;;;;;;;;;;;;;;15.65;72.23;99765.75;5086493;28;2244;-77
2023/08/31 14:06:15;;;;;;;;;;;;;;;15.81;71.98;99761.13;5098707;28;2026;-77
2023/08/31 14:09:07;;;;;;;;;;;;;;;15.80;71.93;99754.09;5091879;28;2209;-76
2023/08/31 14:11:59;;;;;;;;;;;;;;;15.78;71.96;99758.97;5086997;28;2109;-74
2023/08/31 14:14:51;;;;;;;;;;;;;;;15.79;71.97;99760.59;5090257;28;1502;-77
2023/08/31 14:17:43;;;;;;;;;;;;;;;15.79;71.83;99760.59;5098935;28;1481;-77
2023/08/31 14:20:35;;;;;;;;;;;;;;;15.80;71.79;99760.34;5091453;28;1473;-77
2023/08/31 14:23:27;;;;;;;;;;;;;;;15.81;71.76;99759.22;5096543;28;1511;-76
2023/08/31 14:26:19;;;;;;;;;;;;;;;15.83;71.69;99757.06;5093364;28;3543;-77
2023/08/31 14:29:11;;;;;;;;;;;;;;;15.84;71.70;99755.97;5098872;28;1501;-75
2023/08/31 14:32:03;;;;;;;;;;;;;;;15.86;71.72;99759.22;5096096;28;2076;-76
2023/08/31 14:34:55;;;;;;;;;;;;;;;15.87;71.70;99758.13;5094552;28;1648;-75
2023/08/31 14:37:47;;;;;;;;;;;;;;;15.89;71.77;99757.88;5072888;28;1925;-76
2023/08/31 14:40:41;;;;;;;;;;;;;;;15.91;71.75;99758.41;5074749;28;1483;-77
2023/08/31 14:43:33;;;;;;;;;;;;;;;15.93;71.66;99766.28;5071390;28;1545;-76
2023/08/31 14:46:25;;;;;;;;;;;;;;;15.94;71.62;99765.19;5072473;28;1522;-77
2023/08/31 14:49:17;;;;;;;;;;;;;;;15.97;71.82;99756.50;5059519;28;1561;-77
2023/08/31 14:52:09;;;;;;;;;;;;;;;15.98;71.80;99760.84;5055564;28;2167;-77
2023/08/31 14:55:03;;;;;;;;;;;;;;;16.00;71.89;99766.81;5063565;28;1369;-78
2023/08/31 14:57:55;;;;;;;;;;;;;;;16.01;71.82;99769.25;5062686;28;1862;-76
2023/08/31 15:00:46;;;;;;;;;;;;;;;16.02;71.84;99773.59;5055815;28;1752;-78
2023/08/31 15:03:38;;;;;;;;;;;;;;;16.03;71.81;99771.69;5054279;28;1471;-77
2023/08/31 15:06:32;;;;;;;;;;;;;;;16.05;71.94;99772.22;5056565;28;2309;-77